sensor_id;sensor_type;location;lat;lon;timestamp;pressure;altitude;pressure_sealevel;temperature;humidity
18918;BME280;9591;52.742;13.650;2023-02-17T00:01:38;101413.59;;;10.37;98.68
18918;BME280;9591;52.742;13.650;2023-02-17T00:04:27;101412.22;;;10.16;99.58
18918;BME280;9591;52.742;13.650;2023-02-17T00:07:14;101400.44;;;10.34;98.99
18918;BME280;9591;52.742;13.650;2023-02-17T00:10:01;101392.41;;;10.37;99.30
18918;BME280;9591;52.742;13.650;2023-02-17T00:12:48;101388.78;;;10.41;98.99
18918;BME280;9591;52.742;13.650;2023-02-17T00:15:36;101391.88;;;10.62;98.96
18918;BME280;9591;52.742;13.650;2023-02-17T00:18:23;101401.72;;;10.55;100.00
18918;BME280;9591;52.742;13.650;2023-02-17T00:21:14;101398.44;;;10.44;100.00
18918;BME280;9591;52.742;13.650;2023-02-17T00:24:01;101394.91;;;10.43;100.00
18918;BME280;9591;52.742;13.650;2023-02-17T00:26:48;101391.31;;;10.46;100.00
18918;BME280;9591;52.742;13.650;2023-02-17T00:29:35;101396.88;;;10.35;100.00
18918;BME280;9591;52.742;13.650;2023-02-17T00:32:22;101396.22;;;10.24;100.00
18918;BME280;9591;52.742;13.650;2023-02-17T00:35:09;101388.63;;;10.04;100.00
18918;BME280;9591;52.742;13.650;2023-02-17T00:38:00;101386.72;;;10.12;100.00
18918;BME280;9591;52.742;13.650;2023-02-17T00:40:47;101387.59;;;10.13;100.00
18918;BME280;9591;52.742;13.650;2023-02-17T00:43:34;101373.50;;;10.11;100.00
18918;BME280;9591;52.742;13.650;2023-02-17T00:46:21;101370.03;;;10.09;100.00
18918;BME280;9591;52.742;13.650;2023-02-17T00:49:14;101361.44;;;9.96;100.00
18918;BME280;9591;52.742;13.650;2023-02-17T00:52:01;101365.97;;;9.91;100.00
18918;BME280;9591;52.742;13.650;2023-02-17T00:54:52;101371.03;;;10.02;100.00
18918;BME280;9591;52.742;13.650;2023-02-17T00:57:39;101367.63;;;9.97;100.00
18918;BME280;9591;52.742;13.650;2023-02-17T01:00:25;101359.78;;;9.91;100.00
18918;BME280;9591;52.742;13.650;2023-02-17T01:03:12;101348.22;;;9.96;100.00
18918;BME280;9591;52.742;13.650;2023-02-17T01:06:04;101350.72;;;10.04;100.00
18918;BME280;9591;52.742;13.650;2023-02-17T01:08:52;101337.72;;;9.92;100.00
18918;BME280;9591;52.742;13.650;2023-02-17T01:11:41;101341.09;;;10.00;100.00
18918;BME280;9591;52.742;13.650;2023-02-17T01:14:27;101339.84;;;9.73;100.00
18918;BME280;9591;52.742;13.650;2023-02-17T01:17:14;101335.97;;;9.92;100.00
18918;BME280;9591;52.742;13.650;2023-02-17T01:20:01;101330.44;;;10.03;100.00
18918;BME280;9591;52.742;13.650;2023-02-17T01:22:48;101326.09;;;10.00;100.00
18918;BME280;9591;52.742;13.650;2023-02-17T01:25:35;101322.69;;;9.94;100.00
18918;BME280;9591;52.742;13.650;2023-02-17T01:28:23;101320.88;;;9.96;100.00
18918;BME280;9591;52.742;13.650;2023-02-17T01:31:11;101311.25;;;9.93;100.00
18918;BME280;9591;52.742;13.650;2023-02-17T01:34:00;101306.75;;;9.97;100.00
18918;BME280;9591;52.742;13.650;2023-02-17T01:36:47;101290.81;;;10.00;100.00
18918;BME280;9591;52.742;13.650;2023-02-17T01:39:34;101296.91;;;10.03;100.00
18918;BME280;9591;52.742;13.650;2023-02-17T01:42:21;101295.84;;;10.12;100.00
18918;BME280;9591;52.742;13.650;2023-02-17T01:45:30;101286.97;;;10.14;100.00
18918;BME280;9591;52.742;13.650;2023-02-17T01:48:20;101296.97;;;10.00;100.00
18918;BME280;9591;52.742;13.650;2023-02-17T01:51:10;101300.16;;;10.16;100.00
18918;BME280;9591;52.742;13.650;2023-02-17T01:54:02;101303.81;;;10.10;100.00
18918;BME280;9591;52.742;13.650;2023-02-17T01:56:51;101293.28;;;10.09;100.00
18918;BME280;9591;52.742;13.650;2023-02-17T01:59:39;101288.09;;;10.03;100.00
18918;BME280;9591;52.742;13.650;2023-02-17T02:02:27;101274.69;;;10.12;100.00
18918;BME280;9591;52.742;13.650;2023-02-17T02:05:17;101247.59;;;9.99;100.00
18918;BME280;9591;52.742;13.650;2023-02-17T02:08:05;101266.84;;;10.07;100.00
18918;BME280;9591;52.742;13.650;2023-02-17T02:10:52;101262.47;;;10.05;100.00
18918;BME280;9591;52.742;13.650;2023-02-17T02:13:39;101249.13;;;10.11;100.00
18918;BME280;9591;52.742;13.650;2023-02-17T02:16:31;101245.78;;;10.01;100.00
18918;BME280;9591;52.742;13.650;2023-02-17T02:19:39;101239.09;;;9.85;100.00
18918;BME280;9591;52.742;13.650;2023-02-17T02:22:39;101227.50;;;9.91;100.00
18918;BME280;9591;52.742;13.650;2023-02-17T02:26:03;101219.38;;;10.00;100.00
18918;BME280;9591;52.742;13.650;2023-02-17T02:29:03;101183.75;;;9.74;100.00
18918;BME280;9591;52.742;13.650;2023-02-17T02:32:03;101203.75;;;9.88;100.00
18918;BME280;9591;52.742;13.650;2023-02-17T02:35:00;101195.75;;;9.91;100.00
18918;BME280;9591;52.742;13.650;2023-02-17T02:37:55;101188.09;;;9.78;100.00
18918;BME280;9591;52.742;13.650;2023-02-17T02:40:54;101182.56;;;9.89;100.00
18918;BME280;9591;52.742;13.650;2023-02-17T02:43:43;101179.81;;;9.94;100.00
18918;BME280;9591;52.742;13.650;2023-02-17T02:46:30;101178.19;;;9.86;100.00
18918;BME280;9591;52.742;13.650;2023-02-17T02:49:16;101171.94;;;9.91;100.00
18918;BME280;9591;52.742;13.650;2023-02-17T02:52:12;101172.66;;;9.97;100.00
18918;BME280;9591;52.742;13.650;2023-02-17T02:55:03;101174.53;;;9.94;100.00
18918;BME280;9591;52.742;13.650;2023-02-17T02:57:58;101177.38;;;9.84;100.00
18918;BME280;9591;52.742;13.650;2023-02-17T03:00:54;101159.00;;;9.77;100.00
18918;BME280;9591;52.742;13.650;2023-02-17T03:03:54;101154.47;;;9.83;100.00
18918;BME280;9591;52.742;13.650;2023-02-17T03:06:48;101156.94;;;9.91;100.00
18918;BME280;9591;52.742;13.650;2023-02-17T03:09:40;101152.47;;;9.93;100.00
18918;BME280;9591;52.742;13.650;2023-02-17T03:12:30;101155.47;;;9.78;100.00
18918;BME280;9591;52.742;13.650;2023-02-17T03:15:21;101151.81;;;9.83;100.00
18918;BME280;9591;52.742;13.650;2023-02-17T03:18:10;101151.13;;;9.75;100.00
18918;BME280;9591;52.742;13.650;2023-02-17T03:21:05;101141.50;;;9.71;100.00
18918;BME280;9591;52.742;13.650;2023-02-17T03:23:56;101147.97;;;9.58;100.00
18918;BME280;9591;52.742;13.650;2023-02-17T03:26:44;101140.84;;;9.62;100.00
18918;BME280;9591;52.742;13.650;2023-02-17T03:29:31;101130.22;;;9.63;100.00
18918;BME280;9591;52.742;13.650;2023-02-17T03:32:18;101136.25;;;9.70;100.00
18918;BME280;9591;52.742;13.650;2023-02-17T03:35:04;101143.09;;;9.78;100.00
18918;BME280;9591;52.742;13.650;2023-02-17T03:37:51;101143.75;;;9.90;100.00
18918;BME280;9591;52.742;13.650;2023-02-17T03:40:38;101133.06;;;9.94;100.00
18918;BME280;9591;52.742;13.650;2023-02-17T03:43:26;101138.38;;;9.93;100.00
18918;BME280;9591;52.742;13.650;2023-02-17T03:46:14;101136.81;;;9.84;100.00
18918;BME280;9591;52.742;13.650;2023-02-17T03:49:01;101120.72;;;9.93;100.00
18918;BME280;9591;52.742;13.650;2023-02-17T03:51:48;101123.81;;;9.73;100.00
18918;BME280;9591;52.742;13.650;2023-02-17T03:54:34;101114.47;;;9.97;100.00
18918;BME280;9591;52.742;13.650;2023-02-17T03:57:21;101109.41;;;9.86;100.00
18918;BME280;9591;52.742;13.650;2023-02-17T04:00:10;101127.16;;;9.81;100.00
18918;BME280;9591;52.742;13.650;2023-02-17T04:02:57;101116.66;;;9.78;100.00
18918;BME280;9591;52.742;13.650;2023-02-17T04:05:44;101109.41;;;9.86;100.00
18918;BME280;9591;52.742;13.650;2023-02-17T04:08:31;101092.88;;;9.77;100.00
18918;BME280;9591;52.742;13.650;2023-02-17T04:11:18;101111.00;;;9.94;100.00
18918;BME280;9591;52.742;13.650;2023-02-17T04:14:04;101107.28;;;10.02;100.00
18918;BME280;9591;52.742;13.650;2023-02-17T04:16:53;101105.47;;;10.04;100.00
18918;BME280;9591;52.742;13.650;2023-02-17T04:19:40;101101.03;;;10.05;100.00
18918;BME280;9591;52.742;13.650;2023-02-17T04:22:26;101091.97;;;10.15;100.00
18918;BME280;9591;52.742;13.650;2023-02-17T04:25:13;101089.22;;;10.21;100.00
18918;BME280;9591;52.742;13.650;2023-02-17T04:28:00;101091.91;;;10.18;100.00
18918;BME280;9591;52.742;13.650;2023-02-17T04:30:49;101086.84;;;10.09;100.00
18918;BME280;9591;52.742;13.650;2023-02-17T04:33:37;101080.09;;;9.96;100.00
18918;BME280;9591;52.742;13.650;2023-02-17T04:36:24;101093.25;;;9.99;100.00
18918;BME280;9591;52.742;13.650;2023-02-17T04:39:11;101087.38;;;9.86;100.00
18918;BME280;9591;52.742;13.650;2023-02-17T04:41:57;101078.53;;;9.87;100.00
18918;BME280;9591;52.742;13.650;2023-02-17T04:44:44;101084.88;;;9.80;100.00
18918;BME280;9591;52.742;13.650;2023-02-17T04:47:31;101081.81;;;9.98;100.00
18918;BME280;9591;52.742;13.650;2023-02-17T04:50:19;101076.00;;;9.82;100.00
18918;BME280;9591;52.742;13.650;2023-02-17T04:53:06;101072.31;;;9.90;100.00
18918;BME280;9591;52.742;13.650;2023-02-17T04:55:53;101063.53;;;9.88;100.00
18918;BME280;9591;52.742;13.650;2023-02-17T04:58:40;101057.88;;;10.03;100.00
18918;BME280;9591;52.742;13.650;2023-02-17T05:01:27;101050.38;;;9.84;100.00
18918;BME280;9591;52.742;13.650;2023-02-17T05:04:14;101055.38;;;9.97;100.00
18918;BME280;9591;52.742;13.650;2023-02-17T05:07:02;101055.81;;;10.14;100.00
18918;BME280;9591;52.742;13.650;2023-02-17T05:09:49;101054.84;;;10.20;100.00
18918;BME280;9591;52.742;13.650;2023-02-17T05:12:35;101044.22;;;10.21;100.00
18918;BME280;9591;52.742;13.650;2023-02-17T05:15:22;101041.00;;;10.07;100.00
18918;BME280;9591;52.742;13.650;2023-02-17T05:18:09;101050.03;;;9.98;100.00
18918;BME280;9591;52.742;13.650;2023-02-17T05:20:55;101053.22;;;10.12;100.00
18918;BME280;9591;52.742;13.650;2023-02-17T05:23:44;101043.88;;;9.98;100.00
18918;BME280;9591;52.742;13.650;2023-02-17T05:26:30;101048.03;;;10.08;100.00
18918;BME280;9591;52.742;13.650;2023-02-17T05:29:17;101035.13;;;9.96;100.00
18918;BME280;9591;52.742;13.650;2023-02-17T05:32:04;101035.53;;;10.14;100.00
18918;BME280;9591;52.742;13.650;2023-02-17T05:34:51;101029.03;;;10.28;100.00
18918;BME280;9591;52.742;13.650;2023-02-17T05:37:39;101023.81;;;10.25;100.00
18918;BME280;9591;52.742;13.650;2023-02-17T05:40:27;101027.38;;;10.24;100.00
18918;BME280;9591;52.742;13.650;2023-02-17T05:43:13;101035.31;;;10.24;100.00
18918;BME280;9591;52.742;13.650;2023-02-17T05:46:01;101031.41;;;10.38;100.00
18918;BME280;9591;52.742;13.650;2023-02-17T05:48:49;101029.38;;;10.46;100.00
18918;BME280;9591;52.742;13.650;2023-02-17T05:51:36;101024.56;;;10.30;100.00
18918;BME280;9591;52.742;13.650;2023-02-17T05:54:22;101011.66;;;10.16;100.00
18918;BME280;9591;52.742;13.650;2023-02-17T05:57:10;101020.84;;;10.37;100.00
18918;BME280;9591;52.742;13.650;2023-02-17T05:59:58;101020.28;;;10.26;100.00
18918;BME280;9591;52.742;13.650;2023-02-17T06:02:44;101013.50;;;10.46;100.00
18918;BME280;9591;52.742;13.650;2023-02-17T06:05:31;101000.53;;;10.37;100.00
18918;BME280;9591;52.742;13.650;2023-02-17T06:08:18;101009.84;;;10.20;100.00
18918;BME280;9591;52.742;13.650;2023-02-17T06:11:05;100986.25;;;10.09;100.00
18918;BME280;9591;52.742;13.650;2023-02-17T06:13:53;100991.09;;;10.27;100.00
18918;BME280;9591;52.742;13.650;2023-02-17T06:16:40;100990.38;;;10.22;100.00
18918;BME280;9591;52.742;13.650;2023-02-17T06:19:27;100982.91;;;10.36;100.00
18918;BME280;9591;52.742;13.650;2023-02-17T06:22:13;100991.44;;;10.13;100.00
18918;BME280;9591;52.742;13.650;2023-02-17T06:25:03;100989.50;;;10.22;100.00
18918;BME280;9591;52.742;13.650;2023-02-17T06:27:50;100998.75;;;10.38;100.00
18918;BME280;9591;52.742;13.650;2023-02-17T06:30:38;101001.56;;;10.32;100.00
18918;BME280;9591;52.742;13.650;2023-02-17T06:33:25;100987.88;;;10.47;100.00
18918;BME280;9591;52.742;13.650;2023-02-17T06:36:12;100989.75;;;10.43;100.00
18918;BME280;9591;52.742;13.650;2023-02-17T06:38:59;100984.38;;;10.46;100.00
18918;BME280;9591;52.742;13.650;2023-02-17T06:41:45;100981.09;;;10.38;100.00
18918;BME280;9591;52.742;13.650;2023-02-17T06:44:32;100981.38;;;10.59;100.00
18918;BME280;9591;52.742;13.650;2023-02-17T06:47:20;100980.91;;;10.44;100.00
18918;BME280;9591;52.742;13.650;2023-02-17T06:50:08;100974.31;;;10.28;100.00
18918;BME280;9591;52.742;13.650;2023-02-17T06:52:55;100974.47;;;10.53;100.00
18918;BME280;9591;52.742;13.650;2023-02-17T06:55:42;100968.78;;;10.37;100.00
18918;BME280;9591;52.742;13.650;2023-02-17T06:58:29;100965.91;;;10.43;100.00
18918;BME280;9591;52.742;13.650;2023-02-17T07:01:19;100961.19;;;10.55;100.00
18918;BME280;9591;52.742;13.650;2023-02-17T07:04:08;100945.31;;;10.55;100.00
18918;BME280;9591;52.742;13.650;2023-02-17T07:06:55;100943.13;;;10.69;100.00
18918;BME280;9591;52.742;13.650;2023-02-17T07:09:41;100946.13;;;10.57;100.00
18918;BME280;9591;52.742;13.650;2023-02-17T07:12:28;100942.56;;;10.58;100.00
18918;BME280;9591;52.742;13.650;2023-02-17T07:15:15;100950.66;;;10.53;100.00
18918;BME280;9591;52.742;13.650;2023-02-17T07:18:02;100960.94;;;10.64;100.00
18918;BME280;9591;52.742;13.650;2023-02-17T07:20:50;100955.63;;;10.64;100.00
18918;BME280;9591;52.742;13.650;2023-02-17T07:23:37;100955.28;;;10.76;100.00
18918;BME280;9591;52.742;13.650;2023-02-17T07:26:23;100952.50;;;10.49;100.00
18918;BME280;9591;52.742;13.650;2023-02-17T07:29:11;100949.97;;;10.76;100.00
18918;BME280;9591;52.742;13.650;2023-02-17T07:31:58;100934.59;;;10.59;100.00
18918;BME280;9591;52.742;13.650;2023-02-17T07:34:45;100943.09;;;10.70;100.00
18918;BME280;9591;52.742;13.650;2023-02-17T07:37:33;100944.78;;;10.73;100.00
18918;BME280;9591;52.742;13.650;2023-02-17T07:40:20;100944.88;;;10.70;100.00
18918;BME280;9591;52.742;13.650;2023-02-17T07:43:06;100944.47;;;10.52;100.00
18918;BME280;9591;52.742;13.650;2023-02-17T07:45:53;100936.69;;;10.77;100.00
18918;BME280;9591;52.742;13.650;2023-02-17T07:48:43;100932.72;;;10.63;100.00
18918;BME280;9591;52.742;13.650;2023-02-17T07:51:30;100939.66;;;10.67;100.00
18918;BME280;9591;52.742;13.650;2023-02-17T07:54:18;100930.94;;;10.63;100.00
18918;BME280;9591;52.742;13.650;2023-02-17T07:57:05;100930.25;;;10.86;100.00
18918;BME280;9591;52.742;13.650;2023-02-17T07:59:52;100938.97;;;10.90;100.00
18918;BME280;9591;52.742;13.650;2023-02-17T08:02:39;100939.97;;;10.86;100.00
18918;BME280;9591;52.742;13.650;2023-02-17T08:05:25;100928.59;;;10.82;100.00
18918;BME280;9591;52.742;13.650;2023-02-17T08:08:12;100939.56;;;10.70;100.00
18918;BME280;9591;52.742;13.650;2023-02-17T08:11:18;100941.72;;;10.87;100.00
18918;BME280;9591;52.742;13.650;2023-02-17T08:14:24;100924.41;;;11.04;100.00
18918;BME280;9591;52.742;13.650;2023-02-17T08:17:11;100933.94;;;11.10;100.00
18918;BME280;9591;52.742;13.650;2023-02-17T08:19:58;100902.47;;;10.99;100.00
18918;BME280;9591;52.742;13.650;2023-02-17T08:22:52;100928.31;;;11.21;100.00
18918;BME280;9591;52.742;13.650;2023-02-17T08:25:38;100921.81;;;11.29;100.00
18918;BME280;9591;52.742;13.650;2023-02-17T08:28:27;100927.47;;;11.19;100.00
18918;BME280;9591;52.742;13.650;2023-02-17T08:31:14;100917.69;;;11.21;100.00
18918;BME280;9591;52.742;13.650;2023-02-17T08:34:03;100899.53;;;11.08;100.00
18918;BME280;9591;52.742;13.650;2023-02-17T08:36:50;100911.56;;;11.45;100.00
18918;BME280;9591;52.742;13.650;2023-02-17T08:39:37;100893.00;;;11.45;100.00
18918;BME280;9591;52.742;13.650;2023-02-17T08:42:24;100904.22;;;11.27;100.00
18918;BME280;9591;52.742;13.650;2023-02-17T08:45:13;100897.34;;;11.47;100.00
18918;BME280;9591;52.742;13.650;2023-02-17T08:48:00;100891.56;;;11.61;100.00
18918;BME280;9591;52.742;13.650;2023-02-17T08:50:47;100886.47;;;11.55;100.00
18918;BME280;9591;52.742;13.650;2023-02-17T08:53:35;100883.06;;;11.52;100.00
18918;BME280;9591;52.742;13.650;2023-02-17T08:56:23;100871.78;;;11.45;100.00
18918;BME280;9591;52.742;13.650;2023-02-17T08:59:11;100869.94;;;11.47;100.00
18918;BME280;9591;52.742;13.650;2023-02-17T09:02:00;100860.53;;;11.38;100.00
18918;BME280;9591;52.742;13.650;2023-02-17T09:04:47;100853.19;;;11.46;100.00
18918;BME280;9591;52.742;13.650;2023-02-17T09:07:34;100849.56;;;11.49;100.00
18918;BME280;9591;52.742;13.650;2023-02-17T09:10:21;100847.91;;;11.71;100.00
18918;BME280;9591;52.742;13.650;2023-02-17T09:13:08;100837.81;;;11.82;100.00
18918;BME280;9591;52.742;13.650;2023-02-17T09:15:55;100837.84;;;11.81;100.00
18918;BME280;9591;52.742;13.650;2023-02-17T09:18:43;100828.50;;;11.69;100.00
18918;BME280;9591;52.742;13.650;2023-02-17T09:21:30;100818.88;;;11.67;100.00
18918;BME280;9591;52.742;13.650;2023-02-17T09:24:17;100826.66;;;11.71;100.00
18918;BME280;9591;52.742;13.650;2023-02-17T09:27:04;100823.53;;;11.60;100.00
18918;BME280;9591;52.742;13.650;2023-02-17T09:29:51;100805.59;;;11.67;100.00
18918;BME280;9591;52.742;13.650;2023-02-17T09:32:39;100800.88;;;11.50;100.00
18918;BME280;9591;52.742;13.650;2023-02-17T09:35:28;100800.53;;;11.61;100.00
18918;BME280;9591;52.742;13.650;2023-02-17T09:38:15;100803.00;;;11.65;100.00
18918;BME280;9591;52.742;13.650;2023-02-17T09:41:07;100797.13;;;11.82;100.00
18918;BME280;9591;52.742;13.650;2023-02-17T09:44:00;100784.69;;;11.84;100.00
18918;BME280;9591;52.742;13.650;2023-02-17T09:46:54;100783.94;;;11.54;100.00
18918;BME280;9591;52.742;13.650;2023-02-17T09:49:49;100782.16;;;11.55;100.00
18918;BME280;9591;52.742;13.650;2023-02-17T09:52:43;100779.34;;;11.59;100.00
18918;BME280;9591;52.742;13.650;2023-02-17T09:55:36;100784.53;;;11.62;100.00
18918;BME280;9591;52.742;13.650;2023-02-17T09:58:26;100789.19;;;11.56;100.00
18918;BME280;9591;52.742;13.650;2023-02-17T10:01:18;100776.22;;;11.73;100.00
18918;BME280;9591;52.742;13.650;2023-02-17T10:04:09;100759.06;;;11.83;100.00
18918;BME280;9591;52.742;13.650;2023-02-17T10:07:05;100768.03;;;11.54;100.00
18918;BME280;9591;52.742;13.650;2023-02-17T10:09:58;100761.09;;;11.75;100.00
18918;BME280;9591;52.742;13.650;2023-02-17T10:12:50;100741.00;;;11.68;100.00
18918;BME280;9591;52.742;13.650;2023-02-17T10:15:42;100729.31;;;11.73;100.00
18918;BME280;9591;52.742;13.650;2023-02-17T10:18:34;100727.81;;;11.91;100.00
18918;BME280;9591;52.742;13.650;2023-02-17T10:21:26;100735.81;;;11.90;100.00
18918;BME280;9591;52.742;13.650;2023-02-17T10:24:13;100722.09;;;12.02;100.00
18918;BME280;9591;52.742;13.650;2023-02-17T10:27:23;100719.59;;;11.97;100.00
18918;BME280;9591;52.742;13.650;2023-02-17T10:30:23;100701.78;;;12.01;100.00
18918;BME280;9591;52.742;13.650;2023-02-17T10:33:16;100706.72;;;12.10;100.00
18918;BME280;9591;52.742;13.650;2023-02-17T10:36:11;100701.53;;;12.07;100.00
18918;BME280;9591;52.742;13.650;2023-02-17T10:39:07;100681.94;;;11.88;100.00
18918;BME280;9591;52.742;13.650;2023-02-17T10:41:57;100684.59;;;11.88;100.00
18918;BME280;9591;52.742;13.650;2023-02-17T10:44:47;100679.41;;;11.85;100.00
18918;BME280;9591;52.742;13.650;2023-02-17T10:47:35;100685.03;;;11.99;100.00
18918;BME280;9591;52.742;13.650;2023-02-17T10:50:25;100685.34;;;11.91;100.00
18918;BME280;9591;52.742;13.650;2023-02-17T10:53:13;100666.00;;;11.88;100.00
18918;BME280;9591;52.742;13.650;2023-02-17T10:56:07;100663.69;;;12.02;100.00
18918;BME280;9591;52.742;13.650;2023-02-17T10:58:57;100671.19;;;11.67;100.00
18918;BME280;9591;52.742;13.650;2023-02-17T11:01:49;100670.94;;;11.73;100.00
18918;BME280;9591;52.742;13.650;2023-02-17T11:04:40;100656.38;;;11.85;100.00
18918;BME280;9591;52.742;13.650;2023-02-17T11:07:31;100649.59;;;11.76;100.00
18918;BME280;9591;52.742;13.650;2023-02-17T11:10:20;100621.13;;;11.81;100.00
18918;BME280;9591;52.742;13.650;2023-02-17T11:13:29;100616.59;;;12.07;100.00
18918;BME280;9591;52.742;13.650;2023-02-17T11:16:21;100597.13;;;11.85;100.00
18918;BME280;9591;52.742;13.650;2023-02-17T11:19:21;100591.47;;;11.94;100.00
18918;BME280;9591;52.742;13.650;2023-02-17T11:22:25;100585.34;;;11.92;100.00
18918;BME280;9591;52.742;13.650;2023-02-17T11:25:20;100579.69;;;12.01;100.00
18918;BME280;9591;52.742;13.650;2023-02-17T11:28:11;100573.19;;;12.08;100.00
18918;BME280;9591;52.742;13.650;2023-02-17T11:30:59;100562.72;;;12.25;100.00
18918;BME280;9591;52.742;13.650;2023-02-17T11:33:47;100569.34;;;12.15;100.00
18918;BME280;9591;52.742;13.650;2023-02-17T11:36:36;100569.88;;;12.23;100.00
18918;BME280;9591;52.742;13.650;2023-02-17T11:39:22;100554.06;;;12.20;100.00
18918;BME280;9591;52.742;13.650;2023-02-17T11:42:19;100559.56;;;12.15;100.00
18918;BME280;9591;52.742;13.650;2023-02-17T11:45:15;100548.63;;;12.23;100.00
18918;BME280;9591;52.742;13.650;2023-02-17T11:48:16;100516.09;;;12.18;100.00
18918;BME280;9591;52.742;13.650;2023-02-17T11:51:13;100502.56;;;12.24;100.00
18918;BME280;9591;52.742;13.650;2023-02-17T11:54:14;100498.94;;;12.06;100.00
18918;BME280;9591;52.742;13.650;2023-02-17T11:57:16;100483.63;;;12.13;100.00
18918;BME280;9591;52.742;13.650;2023-02-17T12:00:17;100488.50;;;12.22;100.00
18918;BME280;9591;52.742;13.650;2023-02-17T12:03:37;100465.22;;;12.08;100.00
18918;BME280;9591;52.742;13.650;2023-02-17T12:06:36;100464.34;;;12.28;100.00
18918;BME280;9591;52.742;13.650;2023-02-17T12:09:33;100466.19;;;12.67;100.00
18918;BME280;9591;52.742;13.650;2023-02-17T12:12:34;100453.91;;;12.64;100.00
18918;BME280;9591;52.742;13.650;2023-02-17T12:15:28;100439.25;;;12.74;100.00
18918;BME280;9591;52.742;13.650;2023-02-17T12:18:29;100430.00;;;12.83;100.00
18918;BME280;9591;52.742;13.650;2023-02-17T12:21:30;100425.75;;;12.79;100.00
18918;BME280;9591;52.742;13.650;2023-02-17T12:24:36;100418.72;;;12.97;100.00
18918;BME280;9591;52.742;13.650;2023-02-17T12:27:35;100418.66;;;13.17;100.00
18918;BME280;9591;52.742;13.650;2023-02-17T12:30:32;100413.16;;;13.01;100.00
18918;BME280;9591;52.742;13.650;2023-02-17T12:33:37;100416.63;;;13.03;100.00
18918;BME280;9591;52.742;13.650;2023-02-17T12:36:29;100396.75;;;12.93;100.00
18918;BME280;9591;52.742;13.650;2023-02-17T12:39:19;100393.56;;;13.23;100.00
18918;BME280;9591;52.742;13.650;2023-02-17T12:42:15;100398.91;;;13.23;100.00
18918;BME280;9591;52.742;13.650;2023-02-17T12:45:05;100379.56;;;13.19;100.00
18918;BME280;9591;52.742;13.650;2023-02-17T12:47:58;100399.22;;;13.15;100.00
18918;BME280;9591;52.742;13.650;2023-02-17T12:50:51;100396.94;;;13.26;100.00
18918;BME280;9591;52.742;13.650;2023-02-17T12:53:44;100398.97;;;13.21;100.00
18918;BME280;9591;52.742;13.650;2023-02-17T12:56:41;100387.25;;;13.25;100.00
18918;BME280;9591;52.742;13.650;2023-02-17T12:59:34;100380.16;;;13.43;100.00
18918;BME280;9591;52.742;13.650;2023-02-17T13:02:23;100381.88;;;13.44;100.00
18918;BME280;9591;52.742;13.650;2023-02-17T13:05:18;100381.13;;;13.59;100.00
18918;BME280;9591;52.742;13.650;2023-02-17T13:08:09;100388.84;;;13.47;100.00
18918;BME280;9591;52.742;13.650;2023-02-17T13:11:01;100391.44;;;13.48;100.00
18918;BME280;9591;52.742;13.650;2023-02-17T13:13:48;100379.94;;;13.48;100.00
18918;BME280;9591;52.742;13.650;2023-02-17T13:16:42;100376.03;;;13.55;100.00
18918;BME280;9591;52.742;13.650;2023-02-17T13:19:34;100365.59;;;13.33;100.00
18918;BME280;9591;52.742;13.650;2023-02-17T13:22:21;100364.06;;;13.46;100.00
18918;BME280;9591;52.742;13.650;2023-02-17T13:25:10;100362.97;;;13.67;100.00
18918;BME280;9591;52.742;13.650;2023-02-17T13:27:58;100354.69;;;13.73;100.00
18918;BME280;9591;52.742;13.650;2023-02-17T13:30:45;100362.97;;;13.67;100.00
18918;BME280;9591;52.742;13.650;2023-02-17T13:33:47;100356.09;;;13.81;100.00
18918;BME280;9591;52.742;13.650;2023-02-17T13:36:35;100348.97;;;13.81;100.00
18918;BME280;9591;52.742;13.650;2023-02-17T13:39:35;100350.84;;;13.79;100.00
18918;BME280;9591;52.742;13.650;2023-02-17T13:42:34;100334.91;;;13.95;100.00
18918;BME280;9591;52.742;13.650;2023-02-17T13:45:25;100339.75;;;14.04;100.00
18918;BME280;9591;52.742;13.650;2023-02-17T13:48:20;100333.91;;;13.97;100.00
18918;BME280;9591;52.742;13.650;2023-02-17T13:51:30;100335.75;;;13.80;100.00
18918;BME280;9591;52.742;13.650;2023-02-17T13:54:19;100343.66;;;13.81;100.00
18918;BME280;9591;52.742;13.650;2023-02-17T13:57:21;100344.09;;;13.89;100.00
18918;BME280;9591;52.742;13.650;2023-02-17T14:00:18;100343.56;;;13.48;100.00
18918;BME280;9591;52.742;13.650;2023-02-17T14:03:17;100338.88;;;13.53;100.00
18918;BME280;9591;52.742;13.650;2023-02-17T14:06:09;100330.50;;;13.43;100.00
18918;BME280;9591;52.742;13.650;2023-02-17T14:09:12;100333.09;;;13.62;100.00
18918;BME280;9591;52.742;13.650;2023-02-17T14:12:02;100347.09;;;13.66;100.00
18918;BME280;9591;52.742;13.650;2023-02-17T14:14:50;100355.94;;;13.66;100.00
18918;BME280;9591;52.742;13.650;2023-02-17T14:17:36;100354.81;;;13.53;100.00
18918;BME280;9591;52.742;13.650;2023-02-17T14:20:26;100341.22;;;13.59;100.00
18918;BME280;9591;52.742;13.650;2023-02-17T14:23:13;100360.63;;;13.61;100.00
18918;BME280;9591;52.742;13.650;2023-02-17T14:26:08;100357.66;;;13.67;100.00
18918;BME280;9591;52.742;13.650;2023-02-17T14:28:56;100353.81;;;13.73;100.00
18918;BME280;9591;52.742;13.650;2023-02-17T14:31:45;100350.53;;;13.51;100.00
18918;BME280;9591;52.742;13.650;2023-02-17T14:34:34;100352.31;;;13.50;100.00
18918;BME280;9591;52.742;13.650;2023-02-17T14:37:23;100358.88;;;13.43;100.00
18918;BME280;9591;52.742;13.650;2023-02-17T14:40:14;100362.72;;;13.55;100.00
18918;BME280;9591;52.742;13.650;2023-02-17T14:43:03;100353.19;;;13.51;100.00